Time;durP1;ratioP1;P1;durP2;ratioP2;P2;SDS_P1;SDS_P2;PMS_P1;PMS_P2;Temp;Humidity;BMP_temperature;BMP_pressure;BME280_temperature;BME280_humidity;BME280_pressure;Samples;Min_cycle;Max_cycle;Signal;HPM_P1;HPM_P2
2022/05/27 00:01:22;;;;;;;16.35;2.17;;;;;;;15.84;68.49;100227.84;5047356;28;20033;-91
2022/05/27 00:03:48;;;;;;;5.18;1.73;;;;;;;15.82;69.01;100227.31;5045280;28;20028;-91
2022/05/27 00:06:14;;;;;;;2.35;1.33;;;;;;;15.75;69.08;100226.81;5047513;28;20076;-90
2022/05/27 00:08:40;;;;;;;8.65;1.92;;;;;;;15.74;69.45;100220.50;5045534;28;20065;-90
2022/05/27 00:11:07;;;;;;;5.70;1.38;;;;;;;15.81;69.39;100225.66;5047278;28;20118;-91
2022/05/27 00:13:32;;;;;;;3.58;1.40;;;;;;;15.96;68.60;100224.72;5046390;28;20036;-91
2022/05/27 00:15:58;;;;;;;3.05;1.30;;;;;;;15.88;68.53;100228.88;5044897;28;20027;-90
2022/05/27 00:18:23;;;;;;;4.68;2.40;;;;;;;15.76;68.60;100221.03;5046822;28;20021;-90
2022/05/27 00:20:48;;;;;;;4.22;1.50;;;;;;;15.72;69.28;100208.16;5046348;28;20095;-90
2022/05/27 00:23:15;;;;;;;3.37;1.40;;;;;;;15.73;69.00;100212.53;5047802;28;20375;-91
2022/05/27 00:25:40;;;;;;;3.72;1.50;;;;;;;15.71;69.01;100212.84;5060816;28;20346;-90
2022/05/27 00:28:07;;;;;;;7.27;2.70;;;;;;;15.73;69.29;100205.13;5067082;28;20476;-90
2022/05/27 00:30:32;;;;;;;5.45;2.25;;;;;;;15.72;69.37;100197.97;5066146;28;20637;-91
2022/05/27 00:32:58;;;;;;;2.97;1.50;;;;;;;15.63;69.54;100199.72;5060975;28;20143;-90
2022/05/27 00:35:23;;;;;;;6.20;1.63;;;;;;;15.64;69.75;100210.41;5047219;28;20100;-90
2022/05/27 00:37:48;;;;;;;5.68;1.75;;;;;;;15.70;69.46;100200.19;5046137;28;20021;-89
2022/05/27 00:40:15;;;;;;;3.10;1.70;;;;;;;15.66;69.53;100196.41;5046848;28;20032;-90
2022/05/27 00:42:42;;;;;;;5.55;2.28;;;;;;;15.75;69.57;100197.41;5045036;28;20029;-91
2022/05/27 00:45:27;;;;;;;4.35;1.80;;;;;;;15.71;69.50;100196.34;5044788;28;20617;-90
2022/05/27 00:47:56;;;;;;;4.10;2.15;;;;;;;15.62;70.11;100204.38;5041616;28;20120;-90
2022/05/27 00:50:26;;;;;;;4.13;2.22;;;;;;;15.62;70.88;100198.09;5046149;28;20416;-90
2022/05/27 00:55:58;;;;;;;6.90;2.67;;;;;;;15.55;73.26;100209.41;5043299;28;20114;-90
2022/05/27 00:58:39;;;;;;;5.75;1.80;;;;;;;15.44;73.80;100202.38;5046189;28;20029;-91
2022/05/27 01:01:04;;;;;;;7.55;2.55;;;;;;;15.40;74.09;100193.84;5045187;28;20056;-91
2022/05/27 01:03:31;;;;;;;8.52;2.42;;;;;;;15.39;74.25;100192.22;5045968;28;20056;-91
2022/05/27 01:05:57;;;;;;;19.80;2.63;;;;;;;15.41;74.29;100187.25;5045391;28;20025;-93
2022/05/27 01:08:26;;;;;;;5.07;2.40;;;;;;;15.40;75.02;100186.44;5045052;28;20107;-91
2022/05/27 01:11:12;;;;;;;4.50;2.03;;;;;;;15.27;74.73;100192.59;5046814;28;20037;-90
2022/05/27 01:13:56;;;;;;;4.38;1.88;;;;;;;15.33;74.54;100190.63;5045705;28;20114;-90
2022/05/27 01:16:38;;;;;;;5.15;1.63;;;;;;;15.38;74.75;100187.81;5046051;28;20441;-91
2022/05/27 01:22:43;;;;;;;4.80;2.25;;;;;;;15.31;75.12;100187.34;5049673;28;20051;-89
2022/05/27 01:25:28;;;;;;;4.57;2.30;;;;;;;15.28;75.31;100199.72;5059912;28;20028;-90
2022/05/27 01:28:23;;;;;;;6.97;2.28;;;;;;;15.20;75.72;100181.09;5069817;28;20560;-90
2022/05/27 01:30:56;;;;;;;10.25;2.58;;;;;;;15.19;75.98;100185.78;5068637;28;20040;-90
2022/05/27 01:33:45;;;;;;;4.53;2.10;;;;;;;15.12;76.34;100185.28;5061096;28;20095;-89
2022/05/27 01:36:25;;;;;;;8.63;2.70;;;;;;;15.21;75.54;100186.31;5050223;28;20025;-89
2022/05/27 01:39:15;;;;;;;5.03;2.60;;;;;;;15.22;75.63;100185.19;5048350;28;20384;-89
2022/05/27 01:41:52;;;;;;;11.88;2.42;;;;;;;15.27;75.72;100182.44;5049610;28;20029;-89
2022/05/27 01:44:41;;;;;;;9.57;2.65;;;;;;;15.32;75.35;100176.06;5049799;28;20033;-90
2022/05/27 01:47:10;;;;;;;6.40;2.45;;;;;;;15.25;75.55;100179.16;5048731;28;20468;-89
2022/05/27 01:52:40;;;;;;;7.55;2.40;;;;;;;15.31;74.44;100173.59;5043992;28;20043;-90
2022/05/27 01:55:11;;;;;;;4.65;2.00;;;;;;;15.24;75.29;100172.00;5049683;28;20033;-89
2022/05/27 01:57:50;;;;;;;6.90;2.17;;;;;;;15.30;74.76;100175.53;5049391;28;20075;-89
2022/05/27 02:00:24;;;;;;;9.20;3.42;;;;;;;15.31;74.71;100170.84;5047448;28;20053;-90
2022/05/27 02:03:11;;;;;;;5.25;2.38;;;;;;;15.34;74.31;100175.75;5049151;28;20368;-88
2022/05/27 02:05:46;;;;;;;4.97;2.40;;;;;;;15.22;74.80;100165.97;5049454;28;20043;-90
2022/05/27 02:08:21;;;;;;;6.20;2.92;;;;;;;15.16;75.82;100169.88;5047950;28;20451;-90
2022/05/27 02:11:05;;;;;;;11.63;4.00;;;;;;;15.05;75.88;100169.94;5048718;28;20033;-91
2022/05/27 02:13:38;;;;;;;5.70;2.55;;;;;;;15.14;75.83;100166.59;5047648;28;20033;-90
2022/05/27 02:16:07;;;;;;;12.05;3.78;;;;;;;15.24;75.52;100166.50;5049408;28;20029;-92
2022/05/27 02:18:49;;;;;;;6.30;2.45;;;;;;;15.13;76.25;100156.72;5049179;28;20086;-91
2022/05/27 02:21:40;;;;;;;6.68;2.92;;;;;;;15.13;76.12;100162.22;5048085;28;20067;-90
2022/05/27 02:24:08;;;;;;;11.85;3.67;;;;;;;15.05;75.90;100158.94;5050391;28;20476;-90
2022/05/27 02:26:39;;;;;;;8.63;3.17;;;;;;;15.10;75.67;100160.03;5067983;28;20029;-90
2022/05/27 02:29:14;;;;;;;5.20;2.78;;;;;;;15.04;75.94;100157.31;5068962;28;20107;-91
2022/05/27 02:31:45;;;;;;;7.78;3.10;;;;;;;15.09;75.63;100153.72;5066054;28;20041;-89
2022/05/27 02:37:07;;;;;;;8.65;3.03;;;;;;;15.04;76.35;100157.31;5046454;28;20089;-90
2022/05/27 02:39:34;;;;;;;7.18;3.13;;;;;;;15.08;76.22;100156.75;5047158;28;20033;-88
2022/05/27 02:42:16;;;;;;;10.60;2.85;;;;;;;15.01;76.85;100162.56;5048507;28;20021;-90
2022/05/27 02:44:50;;;;;;;7.50;3.33;;;;;;;14.99;76.92;100154.59;5048778;28;20045;-90
2022/05/27 02:47:34;;;;;;;8.18;3.47;;;;;;;14.92;77.29;100165.09;5047059;28;20029;-90
2022/05/27 02:50:16;;;;;;;12.50;3.20;;;;;;;14.92;77.87;100173.31;5048433;28;20683;-90
2022/05/27 02:53:02;;;;;;;7.72;3.83;;;;;;;14.83;78.40;100156.63;5046951;28;20041;-89
2022/05/27 02:55:37;;;;;;;10.63;4.95;;;;;;;14.87;78.19;100163.19;5047724;28;20039;-90
2022/05/27 02:58:02;;;;;;;7.00;3.30;;;;;;;14.79;78.89;100161.84;5048692;28;20032;-90
2022/05/27 03:00:32;;;;;;;11.77;3.92;;;;;;;14.79;79.18;100159.09;5047326;28;20017;-91
2022/05/27 03:02:59;;;;;;;9.68;3.97;;;;;;;14.76;80.11;100159.69;5047889;28;20064;-90
2022/05/27 03:05:30;;;;;;;7.72;3.72;;;;;;;14.72;80.72;100155.84;5046969;28;20108;-90
2022/05/27 03:08:24;;;;;;;6.15;3.25;;;;;;;14.71;80.78;100165.19;5047760;28;20075;-90
2022/05/27 03:11:03;;;;;;;5.57;2.90;;;;;;;14.53;81.43;100172.97;5048639;28;20127;-90
2022/05/27 03:13:49;;;;;;;7.85;3.22;;;;;;;14.52;82.54;100163.06;5046527;28;20037;-90
2022/05/27 03:16:28;;;;;;;6.43;2.92;;;;;;;14.53;82.70;100175.69;5047820;28;20040;-90
2022/05/27 03:19:20;;;;;;;6.40;3.65;;;;;;;14.52;83.43;100168.56;5028308;28;20033;-91
2022/05/27 03:22:11;;;;;;;7.90;3.10;;;;;;;14.57;83.45;100163.06;5026442;28;20041;-92
2022/05/27 03:24:53;;;;;;;29.17;26.48;;;;;;;14.47;84.05;100161.19;5047245;28;20036;-92
2022/05/27 03:27:44;;;;;;;60.30;55.65;;;;;;;14.44;84.53;100164.47;5046716;28;20116;-90
2022/05/27 03:30:18;;;;;;;9.82;4.57;;;;;;;14.44;84.82;100166.44;5045751;28;20029;-92
2022/05/27 03:32:57;;;;;;;11.05;4.47;;;;;;;14.37;85.54;100174.94;5042806;28;20114;-91
2022/05/27 03:35:56;;;;;;;11.48;5.38;;;;;;;14.34;85.72;100179.06;5045404;28;20112;-91
2022/05/27 03:38:36;;;;;;;16.98;4.68;;;;;;;14.35;85.93;100180.72;5047187;28;20561;-91
2022/05/27 03:41:14;;;;;;;10.35;4.45;;;;;;;14.26;86.71;100187.88;5047113;28;20404;-91
2022/05/27 03:43:56;;;;;;;8.02;3.42;;;;;;;14.36;85.90;100181.50;5045942;28;20036;-91
2022/05/27 03:46:36;;;;;;;8.73;4.95;;;;;;;14.35;86.39;100191.69;5047612;28;20033;-91
2022/05/27 03:49:02;;;;;;;13.90;4.05;;;;;;;14.39;86.36;100180.16;5046803;28;20566;-91
2022/05/27 03:51:31;;;;;;;6.95;3.88;;;;;;;14.34;86.44;100191.94;5047127;28;20078;-92
2022/05/27 03:54:03;;;;;;;6.78;3.67;;;;;;;14.31;86.40;100195.25;5046937;28;20095;-92
2022/05/27 03:56:28;;;;;;;7.95;4.45;;;;;;;14.26;87.04;100204.31;5045176;28;20032;-91
2022/05/27 03:58:54;;;;;;;7.07;3.60;;;;;;;14.28;87.01;100204.06;5048017;28;20021;-91
2022/05/27 04:01:25;;;;;;;9.55;3.53;;;;;;;14.35;87.14;100199.91;5045840;28;20040;-92
2022/05/27 04:03:51;;;;;;;4.13;1.92;;;;;;;14.31;86.91;100207.06;5047180;28;20041;-92
2022/05/27 04:06:16;;;;;;;6.53;2.47;;;;;;;14.31;86.37;100208.97;5046304;28;20912;-90
2022/05/27 04:08:41;;;;;;;4.32;1.85;;;;;;;14.29;85.51;100220.22;5046623;28;20049;-90
2022/05/27 04:11:07;;;;;;;3.90;2.17;;;;;;;14.18;85.45;100210.38;5047257;28;20111;-90
2022/05/27 04:13:32;;;;;;;2.63;1.53;;;;;;;14.08;84.17;100220.28;5045579;28;20266;-92
2022/05/27 04:15:57;;;;;;;3.92;2.08;;;;;;;14.17;84.34;100212.31;5046322;28;20357;-89
2022/05/27 04:18:22;;;;;;;4.50;1.43;;;;;;;14.20;83.89;100221.88;5045488;28;20291;-91
2022/05/27 04:20:48;;;;;;;6.37;2.80;;;;;;;14.06;83.29;100219.72;5047027;28;20258;-90
2022/05/27 04:23:14;;;;;;;4.28;1.63;;;;;;;14.07;83.81;100224.13;5045594;28;20285;-90
2022/05/27 04:25:39;;;;;;;5.40;1.92;;;;;;;14.03;84.21;100222.22;5047374;28;20044;-91
2022/05/27 04:28:04;;;;;;;3.63;2.08;;;;;;;14.02;84.38;100221.38;5047019;28;20035;-91
2022/05/27 04:30:30;;;;;;;3.55;1.75;;;;;;;13.94;85.07;100219.19;5046590;28;20080;-91
2022/05/27 04:32:55;;;;;;;5.20;2.53;;;;;;;14.02;84.53;100218.63;5046193;28;20025;-91
2022/05/27 04:35:20;;;;;;;4.10;2.20;;;;;;;13.88;85.35;100216.47;5045795;28;20266;-90
2022/05/27 04:37:45;;;;;;;5.22;2.75;;;;;;;13.92;85.46;100215.91;5045916;28;20606;-91
2022/05/27 04:40:11;;;;;;;4.97;2.60;;;;;;;13.94;85.60;100213.72;5045722;28;20499;-91
2022/05/27 04:42:36;;;;;;;3.88;2.00;;;;;;;13.95;85.37;100216.16;5047076;28;20703;-90
2022/05/27 04:45:03;;;;;;;4.57;2.47;;;;;;;14.03;85.47;100223.03;5046373;28;20100;-90
2022/05/27 04:47:29;;;;;;;5.15;2.60;;;;;;;13.89;85.95;100212.63;5046400;28;20067;-90
2022/05/27 04:49:54;;;;;;;6.18;2.63;;;;;;;14.04;85.40;100210.97;5046345;28;20506;-91
2022/05/27 04:52:25;;;;;;;7.03;3.47;;;;;;;13.98;85.70;100209.31;5047661;28;20021;-91
2022/05/27 04:54:52;;;;;;;7.82;3.10;;;;;;;13.88;85.77;100208.25;5051166;28;20551;-91
2022/05/27 04:57:24;;;;;;;8.60;2.97;;;;;;;13.96;86.18;100211.50;5049745;28;20103;-90
2022/05/27 04:59:49;;;;;;;7.65;3.50;;;;;;;13.96;86.09;100206.88;5050605;28;20025;-91
2022/05/27 05:02:17;;;;;;;8.13;2.67;;;;;;;13.93;86.17;100206.59;5049623;28;20032;-90
2022/05/27 05:04:43;;;;;;;8.93;3.20;;;;;;;13.79;86.57;100207.16;5029991;28;20041;-90
2022/05/27 05:07:08;;;;;;;9.38;2.72;;;;;;;13.92;86.24;100210.44;5030349;28;20116;-90
2022/05/27 05:09:36;;;;;;;4.88;2.45;;;;;;;13.82;86.21;100206.63;5028068;28;20045;-92
2022/05/27 05:12:01;;;;;;;6.15;3.28;;;;;;;13.85;85.79;100214.28;5030390;28;20419;-90
2022/05/27 05:14:26;;;;;;;9.65;4.28;;;;;;;13.94;85.27;100202.75;5046739;28;20036;-91
2022/05/27 05:16:52;;;;;;;8.13;3.80;;;;;;;13.96;86.02;100211.50;5050409;28;20341;-91
2022/05/27 05:19:17;;;;;;;5.75;2.42;;;;;;;13.98;84.83;100210.16;5048937;28;20303;-91
2022/05/27 05:21:43;;;;;;;8.45;2.83;;;;;;;14.00;85.42;100218.91;5049890;28;20013;-91
2022/05/27 05:24:08;;;;;;;6.70;2.50;;;;;;;14.02;85.05;100215.91;5051470;28;20070;-91
2022/05/27 05:26:33;;;;;;;4.63;2.33;;;;;;;14.03;84.78;100212.06;5069515;28;20031;-92
2022/05/27 05:28:59;;;;;;;6.47;1.98;;;;;;;14.08;84.42;100212.03;5070353;28;20438;-91
2022/05/27 05:31:24;;;;;;;11.75;2.88;;;;;;;13.83;85.12;100208.25;5067281;28;20510;-91
2022/05/27 05:33:49;;;;;;;5.43;2.55;;;;;;;13.93;85.58;100210.16;5057128;28;20032;-90
2022/05/27 05:36:14;;;;;;;5.63;2.75;;;;;;;13.91;86.45;100215.09;5046953;28;20048;-89
2022/05/27 05:38:40;;;;;;;7.83;3.23;;;;;;;13.85;86.32;100217.00;5050323;28;20025;-90
2022/05/27 05:41:06;;;;;;;4.28;2.55;;;;;;;14.03;85.51;100216.72;5049060;28;20258;-90
2022/05/27 05:43:32;;;;;;;7.10;2.25;;;;;;;14.00;85.62;100215.34;5049634;28;20025;-90
2022/05/27 05:45:58;;;;;;;5.97;2.35;;;;;;;13.99;85.22;100219.19;5048249;28;20029;-90
2022/05/27 05:48:23;;;;;;;7.45;2.67;;;;;;;14.02;85.82;100215.91;5048136;28;20025;-90
2022/05/27 05:50:49;;;;;;;4.50;2.78;;;;;;;14.08;85.94;100225.75;5049411;28;20399;-91
2022/05/27 05:53:14;;;;;;;7.07;3.37;;;;;;;14.05;85.88;100220.84;5047825;28;20060;-90
2022/05/27 05:55:40;;;;;;;6.63;2.67;;;;;;;14.19;85.22;100220.25;5049350;28;20285;-90
2022/05/27 05:58:06;;;;;;;7.95;3.60;;;;;;;14.19;84.83;100225.72;5047977;28;20289;-90
2022/05/27 06:00:31;;;;;;;6.85;3.20;;;;;;;14.17;84.80;100230.69;5047729;28;20049;-89
2022/05/27 06:02:56;;;;;;;7.07;3.20;;;;;;;14.26;84.11;100225.47;5046915;28;20115;-90
2022/05/27 06:05:23;;;;;;;3.88;2.08;;;;;;;14.33;84.18;100226.78;5048139;28;20332;-90
2022/05/27 06:07:49;;;;;;;13.45;4.35;;;;;;;14.41;84.00;100227.31;5049264;28;20033;-90
2022/05/27 06:10:16;;;;;;;6.72;2.80;;;;;;;14.49;83.80;100229.47;5047786;28;20098;-91
2022/05/27 06:12:42;;;;;;;10.43;3.35;;;;;;;14.59;83.59;100240.41;5049034;28;20025;-90
2022/05/27 06:15:11;;;;;;;8.27;3.75;;;;;;;14.46;83.89;100236.34;5047882;28;20886;-88
2022/05/27 06:17:36;;;;;;;6.45;3.75;;;;;;;14.53;84.39;100236.06;5044865;28;20025;-91
2022/05/27 06:20:04;;;;;;;7.22;3.03;;;;;;;14.62;83.57;100244.53;5045276;28;20035;-91
2022/05/27 06:22:31;;;;;;;10.40;3.55;;;;;;;14.67;83.49;100240.94;5047314;28;20021;-91
2022/05/27 06:24:58;;;;;;;9.90;4.55;;;;;;;14.62;83.33;100246.44;5049063;28;20938;-91
2022/05/27 06:27:23;;;;;;;5.38;2.63;;;;;;;14.74;82.45;100249.69;5045905;28;20524;-90
2022/05/27 06:35:16;;;;;;;11.38;3.60;;;;;;;14.88;82.38;100243.63;5046776;28;20099;-90
2022/05/27 06:37:42;;;;;;;7.88;3.20;;;;;;;14.79;83.06;100241.44;5047596;28;20025;-90
2022/05/27 06:40:08;;;;;;;6.87;3.77;;;;;;;14.79;83.26;100246.91;5047175;28;20626;-92
2022/05/27 06:42:33;;;;;;;8.45;2.92;;;;;;;14.92;82.50;100242.78;5048170;28;20285;-88
2022/05/27 06:44:58;;;;;;;4.72;3.03;;;;;;;14.97;82.02;100250.16;5044507;28;20127;-91
2022/05/27 06:47:24;;;;;;;6.38;3.42;;;;;;;14.98;82.21;100246.31;5048519;28;20032;-90
2022/05/27 06:49:49;;;;;;;12.95;3.33;;;;;;;14.93;82.55;100249.06;5042281;28;20032;-91
2022/05/27 06:52:15;;;;;;;9.80;4.35;;;;;;;14.90;82.52;100257.88;5045083;28;20025;-91
2022/05/27 06:54:44;;;;;;;7.53;3.60;;;;;;;14.80;82.81;100253.25;5046076;28;20075;-90
2022/05/27 06:57:10;;;;;;;5.20;2.90;;;;;;;14.80;82.97;100251.31;5044445;28;20157;-90
2022/05/27 06:59:35;;;;;;;15.50;6.35;;;;;;;14.88;82.19;100251.84;5046895;28;20033;-91
2022/05/27 07:05:04;;;;;;;6.25;3.38;;;;;;;15.05;82.72;100257.78;5038655;28;20126;-87
2022/05/27 07:07:31;;;;;;;9.90;3.95;;;;;;;15.20;83.08;100258.81;5046320;28;20108;-85
2022/05/27 07:09:56;;;;;;;8.27;4.28;;;;;;;15.14;82.35;100265.44;5045633;28;20040;-86
2022/05/27 07:12:22;;;;;;;8.70;4.03;;;;;;;15.26;82.21;100260.44;5041422;28;20104;-85
2022/05/27 07:14:47;;;;;;;11.63;3.75;;;;;;;15.33;81.61;100265.63;5039020;28;20323;-83
2022/05/27 07:17:12;;;;;;;23.30;6.63;;;;;;;15.19;81.25;100261.84;5039957;28;20598;-84
2022/05/27 07:19:39;;;;;;;8.13;3.05;;;;;;;15.18;81.66;100266.50;5038853;28;20272;-84
2022/05/27 07:22:06;;;;;;;9.43;3.25;;;;;;;15.20;81.80;100250.56;5040766;28;20025;-85
2022/05/27 07:24:32;;;;;;;8.10;3.58;;;;;;;15.36;81.65;100253.22;5040185;28;20025;-84
2022/05/27 07:26:57;;;;;;;8.50;4.10;;;;;;;15.41;82.21;100247.69;5040743;28;20017;-85
2022/05/27 07:29:23;;;;;;;7.93;3.90;;;;;;;15.37;82.65;100252.13;5039428;28;20028;-77
2022/05/27 07:31:48;;;;;;;8.65;3.20;;;;;;;15.37;81.81;100260.38;5038780;28;20033;-83
2022/05/27 07:34:14;;;;;;;13.00;4.72;;;;;;;15.36;81.29;100261.44;5040879;28;20033;-76
2022/05/27 07:36:39;;;;;;;15.13;4.20;;;;;;;15.42;80.82;100265.00;5039742;28;20082;-82
2022/05/27 07:39:05;;;;;;;11.82;5.53;;;;;;;15.60;80.27;100260.75;5040303;28;20025;-82
2022/05/27 07:41:31;;;;;;;8.82;3.97;;;;;;;15.78;79.69;100272.16;5039801;28;20025;-82
2022/05/27 07:43:59;;;;;;;14.10;4.25;;;;;;;15.73;79.31;100270.25;5039868;28;20033;-83
2022/05/27 07:46:25;;;;;;;13.45;5.78;;;;;;;15.91;78.40;100263.22;5040113;28;20111;-82
2022/05/27 07:48:51;;;;;;;10.52;4.10;;;;;;;15.82;78.11;100263.06;5040224;28;20025;-82
2022/05/27 07:51:16;;;;;;;10.20;3.55;;;;;;;15.89;78.42;100262.69;5040594;28;20090;-83
2022/05/27 07:56:44;;;;;;;12.63;4.43;;;;;;;16.07;77.69;100260.38;5043229;28;20619;-82
2022/05/27 07:59:10;;;;;;;12.75;5.65;;;;;;;16.05;76.81;100268.13;5043311;28;20119;-82
2022/05/27 08:01:36;;;;;;;8.17;4.67;;;;;;;16.25;77.20;100274.50;5042015;28;20037;-82
2022/05/27 08:04:03;;;;;;;18.52;5.40;;;;;;;16.20;77.11;100262.44;5042447;28;20613;-82
2022/05/27 08:06:28;;;;;;;12.40;4.35;;;;;;;16.14;75.85;100249.84;5041479;28;20028;-83
2022/05/27 08:08:54;;;;;;;16.13;5.27;;;;;;;16.14;75.92;100252.59;5042236;28;20095;-82
2022/05/27 08:11:19;;;;;;;9.45;4.20;;;;;;;16.40;76.00;100268.84;5038813;28;20337;-82
2022/05/27 08:13:44;;;;;;;10.20;5.07;;;;;;;16.19;76.30;100260.00;5038771;28;20032;-82
2022/05/27 08:16:10;;;;;;;11.53;4.37;;;;;;;16.06;76.83;100256.00;5038118;28;20091;-81
2022/05/27 08:18:37;;;;;;;10.60;5.33;;;;;;;16.14;76.27;100263.59;5039386;28;20270;-83
2022/05/27 08:21:02;;;;;;;16.55;6.05;;;;;;;16.20;76.58;100267.13;5039724;28;20767;-83
2022/05/27 08:23:28;;;;;;;17.02;8.35;;;;;;;16.34;75.82;100261.75;5039105;28;20067;-83
2022/05/27 08:25:55;;;;;;;14.30;6.97;;;;;;;16.49;75.28;100258.03;5058995;28;20468;-83
2022/05/27 08:28:24;;;;;;;22.65;6.43;;;;;;;16.63;75.14;100262.81;5061404;28;20166;-82
2022/05/27 08:30:50;;;;;;;12.15;6.07;;;;;;;16.71;75.15;100275.09;5064026;28;20036;-84
2022/05/27 08:33:15;;;;;;;13.90;7.68;;;;;;;16.76;74.00;100266.78;5054665;28;20167;-83
2022/05/27 08:38:30;;;;;;;23.52;7.45;;;;;;;16.65;73.67;100261.41;5044177;28;20265;-83
2022/05/27 08:41:27;;;;;;;21.23;8.65;;;;;;;16.63;74.12;100265.56;5043114;28;20406;-84
2022/05/27 08:44:13;;;;;;;14.40;7.28;;;;;;;16.52;73.74;100262.94;5043946;28;20539;-83
2022/05/27 08:47:02;;;;;;;11.57;6.70;;;;;;;16.43;74.07;100264.69;5042760;28;20039;-82
2022/05/27 08:49:35;;;;;;;12.20;5.93;;;;;;;16.51;74.68;100274.22;5043356;28;20025;-83
2022/05/27 08:52:20;;;;;;;12.05;6.43;;;;;;;16.62;74.20;100269.44;5043883;28;20036;-83
2022/05/27 08:54:54;;;;;;;15.40;6.80;;;;;;;16.52;74.13;100267.59;5043103;28;20394;-83
2022/05/27 09:00:15;;;;;;;10.10;5.57;;;;;;;16.42;73.37;100269.38;5014730;28;20116;-83
2022/05/27 09:02:53;;;;;;;14.80;7.10;;;;;;;16.84;72.72;100268.88;5042318;28;20029;-82
2022/05/27 09:08:27;;;;;;;16.80;6.70;;;;;;;16.77;71.83;100257.41;5041275;28;20056;-83
2022/05/27 09:11:30;;;;;;;14.40;6.18;;;;;;;16.47;72.25;100273.19;5042655;28;20037;-82
2022/05/27 09:14:16;;;;;;;10.00;5.13;;;;;;;16.22;72.25;100271.22;5043274;28;20049;-82
2022/05/27 09:16:59;;;;;;;7.82;4.88;;;;;;;16.29;71.88;100259.88;5042778;28;20480;-83
2022/05/27 09:19:27;;;;;;;8.60;3.95;;;;;;;16.34;71.34;100262.56;5042611;28;20029;-83
2022/05/27 09:21:52;;;;;;;9.02;4.30;;;;;;;16.38;69.20;100257.31;5043614;28;20033;-85
2022/05/27 09:24:56;;;;;;;10.80;4.63;;;;;;;16.46;68.02;100255.84;5044761;28;20392;-85
2022/05/27 09:27:29;;;;;;;9.15;3.70;;;;;;;16.47;67.19;100270.41;5062928;28;20036;-84
2022/05/27 09:30:08;;;;;;;11.70;4.33;;;;;;;16.49;65.20;100263.53;5062490;28;20145;-83
2022/05/27 09:32:40;;;;;;;10.90;5.75;;;;;;;16.60;64.46;100264.22;5059271;28;20024;-84
2022/05/27 09:35:10;;;;;;;15.52;4.00;;;;;;;16.89;64.15;100271.56;5042714;28;20269;-83
2022/05/27 09:37:42;;;;;;;10.13;3.22;;;;;;;17.02;63.76;100264.50;5040143;28;20128;-83
2022/05/27 09:40:31;;;;;;;12.23;4.50;;;;;;;17.37;62.57;100266.28;5042778;28;20071;-83
2022/05/27 09:43:16;;;;;;;6.68;3.80;;;;;;;17.48;59.87;100264.16;5040826;28;20608;-83
2022/05/27 09:45:43;;;;;;;16.08;5.68;;;;;;;17.83;59.01;100264.72;5040357;28;20041;-83
2022/05/27 09:48:10;;;;;;;7.65;3.40;;;;;;;17.96;58.10;100254.00;5043102;28;20056;-83
2022/05/27 09:50:45;;;;;;;8.15;3.20;;;;;;;17.63;58.51;100252.09;5041911;28;20076;-83
2022/05/27 09:53:25;;;;;;;5.88;2.40;;;;;;;17.41;58.66;100259.03;5042389;28;20117;-83
2022/05/27 09:55:59;;;;;;;8.43;3.17;;;;;;;17.28;57.83;100266.13;5042657;28;20029;-83
2022/05/27 09:58:31;;;;;;;12.00;4.05;;;;;;;17.68;56.48;100279.56;5041631;28;20036;-84
2022/05/27 10:00:56;;;;;;;9.65;3.75;;;;;;;17.65;56.60;100279.34;5042207;28;20530;-83
2022/05/27 10:03:33;;;;;;;8.73;4.47;;;;;;;17.27;55.36;100275.50;5040916;28;20064;-83
2022/05/27 10:06:26;;;;;;;7.53;3.15;;;;;;;17.65;55.24;100282.94;5042472;28;20264;-83
2022/05/27 10:08:56;;;;;;;12.23;4.57;;;;;;;18.00;54.28;100266.06;5041797;28;20047;-82
2022/05/27 10:11:26;;;;;;;9.60;4.10;;;;;;;18.00;53.02;100279.84;5041836;28;20025;-83
2022/05/27 10:14:06;;;;;;;9.60;3.30;;;;;;;17.85;53.66;100269.91;5042374;28;20037;-82
2022/05/27 10:16:32;;;;;;;9.48;3.47;;;;;;;18.07;54.33;100271.19;5040698;28;20025;-83
2022/05/27 10:19:27;;;;;;;6.82;3.13;;;;;;;17.96;55.92;100276.88;5041788;28;20036;-82
2022/05/27 10:21:57;;;;;;;6.63;2.70;;;;;;;17.83;55.47;100281.25;5041100;28;20080;-83
2022/05/27 10:24:38;;;;;;;5.65;2.65;;;;;;;17.88;56.11;100287.81;5044344;28;20449;-83
2022/05/27 10:27:13;;;;;;;11.55;4.25;;;;;;;18.08;54.79;100281.91;5060867;28;20025;-83
2022/05/27 10:29:54;;;;;;;9.98;4.72;;;;;;;18.38;53.67;100278.13;5061045;28;20178;-83
2022/05/27 10:32:44;;;;;;;9.93;3.53;;;;;;;18.45;53.16;100272.22;5060586;28;20020;-83
2022/05/27 10:35:21;;;;;;;11.05;3.38;;;;;;;18.58;53.67;100279.66;5041832;28;20036;-83
2022/05/27 10:38:27;;;;;;;10.50;4.13;;;;;;;18.81;53.10;100267.88;5039800;28;20033;-83
2022/05/27 10:41:19;;;;;;;12.07;3.70;;;;;;;19.10;51.69;100272.25;5040360;28;20570;-84
2022/05/27 10:43:54;;;;;;;9.57;4.70;;;;;;;18.95;51.61;100265.94;5041100;28;20152;-82
2022/05/27 10:46:23;;;;;;;8.13;4.45;;;;;;;18.63;51.18;100265.75;5040093;28;20033;-83
2022/05/27 10:49:13;;;;;;;7.10;3.38;;;;;;;18.66;51.65;100272.59;5021006;28;20100;-82
2022/05/27 10:51:44;;;;;;;10.57;3.90;;;;;;;18.67;50.34;100271.50;5021183;28;20048;-83
2022/05/27 10:54:44;;;;;;;10.38;2.97;;;;;;;18.63;51.23;100262.97;5036146;28;20123;-82
2022/05/27 11:03:17;;;;;;;9.70;4.13;;;;;;;18.26;50.91;100259.31;5040828;28;20097;-84
2022/05/27 11:05:52;;;;;;;8.55;2.95;;;;;;;18.67;50.12;100268.72;5041231;28;20280;-84
2022/05/27 11:08:25;;;;;;;8.57;2.85;;;;;;;18.95;49.12;100252.13;5038536;28;20547;-83
2022/05/27 11:11:01;;;;;;;8.65;3.28;;;;;;;19.11;48.66;100263.66;5041440;28;20250;-82
2022/05/27 11:16:46;;;;;;;10.07;3.78;;;;;;;19.33;47.83;100244.66;5039901;28;20523;-82
2022/05/27 11:19:32;;;;;;;8.00;2.80;;;;;;;19.04;47.96;100249.41;5041529;28;20464;-82
2022/05/27 11:22:22;;;;;;;11.52;3.17;;;;;;;19.23;46.69;100254.84;5040514;28;20504;-84
2022/05/27 11:24:58;;;;;;;7.53;2.45;;;;;;;19.39;46.28;100248.94;5035521;28;20468;-83
2022/05/27 11:27:36;;;;;;;10.10;2.58;;;;;;;19.56;46.11;100251.03;5061392;28;20106;-84
2022/05/27 11:30:19;;;;;;;12.73;3.53;;;;;;;19.71;45.74;100244.28;5060064;28;20040;-84
2022/05/27 11:33:08;;;;;;;7.05;2.17;;;;;;;20.12;45.08;100230.53;5056240;28;20415;-83
2022/05/27 11:36:11;;;;;;;7.60;2.53;;;;;;;19.50;45.38;100244.00;5040821;28;20037;-84
2022/05/27 11:38:45;;;;;;;57.20;7.32;;;;;;;18.92;44.41;100240.84;5040312;28;20063;-84
2022/05/27 11:41:23;;;;;;;8.20;2.38;;;;;;;19.56;44.58;100258.50;5040579;28;20253;-83
2022/05/27 11:44:18;;;;;;;11.18;1.85;;;;;;;19.66;45.23;100252.72;5040304;28;20072;-83
2022/05/27 11:47:18;;;;;;;7.18;2.70;;;;;;;19.55;46.27;100256.84;5039680;28;20375;-83
2022/05/27 11:50:05;;;;;;;9.45;3.55;;;;;;;19.13;46.70;100263.31;5040131;28;20041;-83
2022/05/27 11:52:55;;;;;;;12.18;2.88;;;;;;;19.30;45.42;100264.66;5040214;28;20037;-83
2022/05/27 11:55:38;;;;;;;8.60;2.55;;;;;;;19.75;44.80;100254.75;5030997;28;20029;-83
2022/05/27 11:58:18;;;;;;;6.68;3.10;;;;;;;20.29;43.93;100245.59;5029635;28;20167;-84
2022/05/27 12:01:37;;;;;;;8.88;3.13;;;;;;;20.45;43.41;100242.38;5032344;28;20060;-83
2022/05/27 12:04:32;;;;;;;7.05;3.00;;;;;;;19.38;44.17;100252.03;5021859;28;20041;-83
2022/05/27 12:07:12;;;;;;;6.65;2.47;;;;;;;18.64;45.80;100253.59;5040242;28;20092;-84
2022/05/27 12:10:00;;;;;;;9.85;2.67;;;;;;;19.09;46.02;100256.78;5039683;28;20086;-82
2022/05/27 12:12:37;;;;;;;12.00;3.28;;;;;;;19.42;44.86;100253.88;5039118;28;20136;-84
2022/05/27 12:15:09;;;;;;;6.13;2.03;;;;;;;19.84;42.99;100258.38;5040440;28;20513;-84
2022/05/27 12:17:43;;;;;;;8.40;3.08;;;;;;;20.03;43.15;100257.34;5039016;28;20114;-83
2022/05/27 12:20:13;;;;;;;15.43;4.95;;;;;;;19.74;41.67;100248.38;5039259;28;20110;-82
2022/05/27 12:22:40;;;;;;;8.13;2.63;;;;;;;19.95;41.27;100234.03;5039050;28;20037;-83
2022/05/27 12:25:26;;;;;;;5.65;2.42;;;;;;;19.35;41.37;100242.41;5038487;28;20383;-84
2022/05/27 12:27:53;;;;;;;9.93;2.80;;;;;;;19.66;41.87;100243.59;5040803;28;20124;-84
2022/05/27 12:30:23;;;;;;;13.10;3.35;;;;;;;19.83;41.08;100242.91;5039082;28;20033;-83